JBU1193 KBOS-MKJS
Flight info
| Callsign | JBU1193 |
|---|---|
| Flight time | N/A |
| Altitude | 34000 |
| Route | SSOXS7 SSOXS Q167 RIFLE DCT HEADI Q97 KALDA DCT TUGGR Q101 SKARP DCT IDOLS DCT JAZZI/N0461F360 Y319 URSUS/N0461F350 UL780 TASNO UM221 NIBEO DCT ADSEL LENAR7 |
| Aircraft | A321/M-SDE3FGHIRWY/LB1 |
Departure
| Time | 2026-05-07 14:11 |
|---|---|
| Airport | Boston Logan International Airport (KBOS) |
Arrival
| Time | N/A |
|---|---|
| Airport | Sangster International Airport (MKJS) |
| Time | Latitude | Longitude | Altitude | Speed | Heading |
|---|---|---|---|---|---|
| 2026-05-07 13:58 | 42.36836 | -71.01468 | 30 ft | 0 kts | 248° |
| 2026-05-07 14:00 | 42.36841 | -71.01452 | 31 ft | 3 kts | 248° |
| 2026-05-07 14:00 | 42.36850 | -71.01429 | 31 ft | 3 kts | 221° |
| 2026-05-07 14:00 | 42.36866 | -71.01415 | 28 ft | 3 kts | 192° |
| 2026-05-07 14:00 | 42.36886 | -71.01414 | 30 ft | 3 kts | 162° |
| 2026-05-07 14:01 | 42.36903 | -71.01425 | 30 ft | 3 kts | 132° |
| 2026-05-07 14:01 | 42.36905 | -71.01428 | 30 ft | 0 kts | 128° |
| 2026-05-07 14:04 | 42.36898 | -71.01416 | 25 ft | 9 kts | 128° |
| 2026-05-07 14:04 | 42.36834 | -71.01326 | 30 ft | 15 kts | 136° |
| 2026-05-07 14:05 | 42.36750 | -71.01248 | 27 ft | 15 kts | 163° |
| 2026-05-07 14:05 | 42.36647 | -71.01266 | 27 ft | 15 kts | 197° |
| 2026-05-07 14:05 | 42.36545 | -71.01316 | 28 ft | 17 kts | 206° |
| 2026-05-07 14:05 | 42.36411 | -71.01395 | 28 ft | 16 kts | 193° |
| 2026-05-07 14:06 | 42.36332 | -71.01310 | 30 ft | 16 kts | 120° |
| 2026-05-07 14:06 | 42.36276 | -71.01180 | 28 ft | 16 kts | 120° |
| 2026-05-07 14:06 | 42.36227 | -71.01039 | 28 ft | 17 kts | 114° |
| 2026-05-07 14:06 | 42.36179 | -71.00896 | 25 ft | 17 kts | 114° |
| 2026-05-07 14:07 | 42.36130 | -71.00747 | 28 ft | 17 kts | 114° |
| 2026-05-07 14:07 | 42.36088 | -71.00595 | 28 ft | 18 kts | 110° |
| 2026-05-07 14:07 | 42.36047 | -71.00433 | 28 ft | 18 kts | 108° |
| 2026-05-07 14:07 | 42.36008 | -71.00265 | 26 ft | 19 kts | 107° |
| 2026-05-07 14:08 | 42.35962 | -71.00097 | 28 ft | 19 kts | 109° |
| 2026-05-07 14:08 | 42.35962 | -70.99916 | 25 ft | 22 kts | 77° |
| 2026-05-07 14:08 | 42.36009 | -70.99665 | 28 ft | 30 kts | 76° |
| 2026-05-07 14:08 | 42.36058 | -70.99395 | 25 ft | 30 kts | 76° |
| 2026-05-07 14:09 | 42.36106 | -70.99123 | 29 ft | 30 kts | 76° |
| 2026-05-07 14:09 | 42.36135 | -70.98953 | 28 ft | 17 kts | 79° |
| 2026-05-07 14:09 | 42.36087 | -70.98834 | 28 ft | 16 kts | 167° |
| 2026-05-07 14:09 | 42.36001 | -70.98892 | 28 ft | 9 kts | 257° |
| 2026-05-07 14:10 | 42.36000 | -70.98898 | 27 ft | 4 kts | 258° |
| 2026-05-07 14:10 | 42.35932 | -70.99305 | 28 ft | 87 kts | 256° |
| 2026-05-07 14:10 | 42.35732 | -71.00424 | 28 ft | 155 kts | 256° |
| 2026-05-07 14:10 | 42.35452 | -71.01981 | 595 ft | 172 kts | 259° |
| 2026-05-07 14:11 | 42.34988 | -71.03441 | 1579 ft | 179 kts | 236° |
| 2026-05-07 14:11 | 42.34043 | -71.04729 | 2199 ft | 205 kts | 227° |
| 2026-05-07 14:11 | 42.32938 | -71.06118 | 2743 ft | 229 kts | 226° |
| 2026-05-07 14:11 | 42.31736 | -71.07611 | 3211 ft | 239 kts | 225° |
| 2026-05-07 14:12 | 42.30470 | -71.09180 | 3611 ft | 254 kts | 226° |
| 2026-05-07 14:12 | 42.29155 | -71.10813 | 4271 ft | 259 kts | 225° |
| 2026-05-07 14:12 | 42.27586 | -71.12031 | 4986 ft | 269 kts | 195° |
| 2026-05-07 14:12 | 42.25705 | -71.11909 | 5733 ft | 278 kts | 167° |
| 2026-05-07 14:13 | 42.23904 | -71.10917 | 6510 ft | 282 kts | 158° |
| 2026-05-07 14:13 | 42.22764 | -71.10064 | 6974 ft | 285 kts | 155° |
| 2026-05-07 14:13 | 42.21062 | -71.08666 | 7661 ft | 288 kts | 155° |
| 2026-05-07 14:13 | 42.19354 | -71.07243 | 8344 ft | 290 kts | 157° |
| 2026-05-07 14:14 | 42.17619 | -71.05848 | 9022 ft | 291 kts | 159° |
| 2026-05-07 14:14 | 42.15857 | -71.04491 | 9725 ft | 292 kts | 161° |
| 2026-05-07 14:14 | 42.14126 | -71.02974 | 10262 ft | 304 kts | 155° |
| 2026-05-07 14:14 | 42.12324 | -71.01292 | 10387 ft | 326 kts | 155° |
| 2026-05-07 14:15 | 42.10393 | -70.99511 | 10507 ft | 346 kts | 155° |
| 2026-05-07 14:15 | 42.08344 | -70.97620 | 10639 ft | 367 kts | 155° |
| 2026-05-07 14:15 | 42.06187 | -70.95621 | 10795 ft | 385 kts | 154° |
| 2026-05-07 14:15 | 42.03967 | -70.93547 | 11235 ft | 392 kts | 154° |
| 2026-05-07 14:16 | 42.01724 | -70.91433 | 11796 ft | 395 kts | 154° |
| 2026-05-07 14:16 | 41.99464 | -70.89302 | 12375 ft | 398 kts | 154° |
| 2026-05-07 14:16 | 41.97180 | -70.87161 | 12942 ft | 401 kts | 155° |
| 2026-05-07 14:16 | 41.94909 | -70.85041 | 13534 ft | 404 kts | 155° |
| 2026-05-07 14:17 | 41.92590 | -70.82885 | 14072 ft | 407 kts | 155° |
| 2026-05-07 14:17 | 41.90250 | -70.80727 | 14608 ft | 407 kts | 157° |
| 2026-05-07 14:17 | 41.87772 | -70.79014 | 15130 ft | 396 kts | 169° |
| 2026-05-07 14:17 | 41.85164 | -70.78045 | 15659 ft | 384 kts | 180° |
| 2026-05-07 14:18 | 41.82540 | -70.77806 | 16197 ft | 373 kts | 191° |
| 2026-05-07 14:18 | 41.79998 | -70.78246 | 16720 ft | 365 kts | 201° |
| 2026-05-07 14:18 | 41.77614 | -70.79297 | 17237 ft | 358 kts | 211° |
| 2026-05-07 14:18 | 41.75423 | -70.80839 | 17766 ft | 355 kts | 216° |
| 2026-05-07 14:19 | 41.73266 | -70.82467 | 18253 ft | 357 kts | 216° |
| 2026-05-07 14:19 | 41.71092 | -70.84098 | 18685 ft | 359 kts | 216° |
| 2026-05-07 14:19 | 41.68907 | -70.85729 | 19130 ft | 360 kts | 216° |
| 2026-05-07 14:19 | 41.66715 | -70.87362 | 19567 ft | 361 kts | 216° |
| 2026-05-07 14:20 | 41.64517 | -70.89003 | 20005 ft | 362 kts | 217° |
| 2026-05-07 14:20 | 41.62309 | -70.90655 | 20444 ft | 363 kts | 217° |
| 2026-05-07 14:20 | 41.60131 | -70.92285 | 20864 ft | 364 kts | 217° |
| 2026-05-07 14:20 | 41.57917 | -70.93940 | 21296 ft | 366 kts | 217° |
| 2026-05-07 14:21 | 41.55787 | -70.95749 | 21711 ft | 360 kts | 224° |
| 2026-05-07 14:21 | 41.53965 | -70.97999 | 22117 ft | 354 kts | 233° |
| 2026-05-07 14:21 | 41.52494 | -71.00614 | 22530 ft | 352 kts | 239° |
| 2026-05-07 14:21 | 41.51143 | -71.03342 | 22947 ft | 353 kts | 239° |
| 2026-05-07 14:22 | 41.49782 | -71.06069 | 23366 ft | 353 kts | 239° |
| 2026-05-07 14:22 | 41.48412 | -71.08804 | 23709 ft | 354 kts | 239° |
| 2026-05-07 14:22 | 41.47039 | -71.11538 | 24038 ft | 355 kts | 239° |
| 2026-05-07 14:22 | 41.45664 | -71.14273 | 24368 ft | 355 kts | 239° |
| 2026-05-07 14:23 | 41.44288 | -71.17012 | 24707 ft | 356 kts | 239° |
| 2026-05-07 14:23 | 41.42907 | -71.19755 | 25041 ft | 357 kts | 239° |
| 2026-05-07 14:23 | 41.41520 | -71.22501 | 25372 ft | 358 kts | 239° |
| 2026-05-07 14:23 | 41.40132 | -71.25255 | 25684 ft | 358 kts | 239° |
| 2026-05-07 14:24 | 41.38745 | -71.28010 | 26039 ft | 357 kts | 240° |
| 2026-05-07 14:24 | 41.37364 | -71.30749 | 26488 ft | 355 kts | 240° |
| 2026-05-07 14:24 | 41.35996 | -71.33464 | 26933 ft | 352 kts | 240° |
| 2026-05-07 14:24 | 41.34638 | -71.36160 | 27404 ft | 349 kts | 240° |
| 2026-05-07 14:25 | 41.33290 | -71.38834 | 27841 ft | 347 kts | 240° |
| 2026-05-07 14:25 | 41.31951 | -71.41488 | 28281 ft | 344 kts | 240° |
| 2026-05-07 14:25 | 41.30622 | -71.44119 | 28722 ft | 342 kts | 240° |
| 2026-05-07 14:25 | 41.29316 | -71.46697 | 29142 ft | 339 kts | 240° |
| 2026-05-07 14:26 | 41.28000 | -71.49288 | 29578 ft | 337 kts | 240° |
| 2026-05-07 14:26 | 41.26691 | -71.51862 | 29999 ft | 335 kts | 240° |
| 2026-05-07 14:26 | 41.25391 | -71.54419 | 30352 ft | 333 kts | 240° |
| 2026-05-07 14:26 | 41.24102 | -71.56956 | 30696 ft | 331 kts | 241° |
| 2026-05-07 14:27 | 41.22819 | -71.59480 | 31034 ft | 329 kts | 241° |
| 2026-05-07 14:27 | 41.21544 | -71.61992 | 31366 ft | 327 kts | 241° |
| 2026-05-07 14:27 | 41.20277 | -71.64484 | 31698 ft | 325 kts | 241° |
| 2026-05-07 14:27 | 41.19012 | -71.66968 | 32018 ft | 323 kts | 241° |
| 2026-05-07 14:28 | 41.17755 | -71.69434 | 32340 ft | 321 kts | 242° |
| 2026-05-07 14:28 | 41.16503 | -71.71883 | 32659 ft | 320 kts | 242° |
| 2026-05-07 14:28 | 41.15256 | -71.74317 | 32971 ft | 318 kts | 242° |
| 2026-05-07 14:28 | 41.14019 | -71.76737 | 33305 ft | 316 kts | 242° |
| 2026-05-07 14:29 | 41.12791 | -71.79151 | 33595 ft | 315 kts | 242° |
| 2026-05-07 14:29 | 41.11571 | -71.81556 | 33850 ft | 314 kts | 242° |
| 2026-05-07 14:29 | 41.10354 | -71.83958 | 33902 ft | 314 kts | 242° |
| 2026-05-07 14:30 | 41.07913 | -71.88759 | 33918 ft | 314 kts | 242° |
| 2026-05-07 14:30 | 41.05483 | -71.93517 | 33915 ft | 314 kts | 242° |
| 2026-05-07 14:31 | 41.03138 | -71.98361 | 33917 ft | 309 kts | 248° |
| 2026-05-07 14:31 | 41.01325 | -72.03524 | 33917 ft | 309 kts | 248° |
| 2026-05-07 14:32 | 40.99508 | -72.08693 | 33921 ft | 310 kts | 248° |
| 2026-05-07 14:32 | 40.97686 | -72.13866 | 33917 ft | 310 kts | 248° |
| 2026-05-07 14:33 | 40.95851 | -72.19058 | 33918 ft | 313 kts | 248° |
| 2026-05-07 14:33 | 40.94000 | -72.24280 | 33915 ft | 314 kts | 248° |
| 2026-05-07 14:34 | 40.92136 | -72.29514 | 33917 ft | 315 kts | 246° |
| 2026-05-07 14:34 | 40.89341 | -72.34114 | 33916 ft | 328 kts | 234° |
| 2026-05-07 14:35 | 40.86091 | -72.38351 | 33923 ft | 328 kts | 234° |
| 2026-05-07 14:35 | 40.82854 | -72.42561 | 33937 ft | 329 kts | 234° |
| 2026-05-07 14:36 | 40.79551 | -72.46759 | 33936 ft | 334 kts | 230° |
| 2026-05-07 14:36 | 40.75958 | -72.50661 | 33939 ft | 334 kts | 230° |
| 2026-05-07 14:37 | 40.72361 | -72.54555 | 33942 ft | 335 kts | 230° |